TimeMST,TemperatureF,Dew PointF,Humidity,Sea Level PressureIn,VisibilityMPH,Wind Direction,Wind SpeedMPH,Gust SpeedMPH,PrecipitationIn,Events,Conditions,WindDirDegrees,DateUTC
12:15 AM,35.4,27.7,73,30.02,10.0,Calm,Calm,-,N/A,,Clear,0,2012-11-18 07:15:00
12:55 AM,31.8,25.0,76,30.02,10.0,Calm,Calm,-,N/A,,Clear,0,2012-11-18 07:55:00
1:15 AM,31.6,25.7,79,30.02,10.0,Calm,Calm,-,N/A,,Clear,0,2012-11-18 08:15:00
1:35 AM,30.6,25.2,80,30.02,10.0,Calm,Calm,-,N/A,,Clear,0,2012-11-18 08:35:00
1:55 AM,31.3,25.5,79,30.01,10.0,WSW,4.6,-,N/A,,Clear,250,2012-11-18 08:55:00
2:15 AM,30.4,25.2,81,30.01,10.0,West,4.6,-,N/A,,Clear,270,2012-11-18 09:15:00
2:35 AM,32.4,27.0,80,30.00,10.0,Calm,Calm,-,N/A,,Clear,0,2012-11-18 09:35:00
2:55 AM,32.2,26.6,80,29.99,10.0,Calm,Calm,-,N/A,,Clear,0,2012-11-18 09:55:00
3:15 AM,31.6,26.1,80,29.99,10.0,Calm,Calm,-,N/A,,Clear,0,2012-11-18 10:15:00
3:35 AM,32.0,25.7,78,29.98,10.0,Calm,Calm,-,N/A,,Clear,0,2012-11-18 10:35:00
3:55 AM,32.5,26.8,79,29.97,10.0,Calm,Calm,-,N/A,,Clear,0,2012-11-18 10:55:00
4:15 AM,32.2,27.0,81,29.97,10.0,Calm,Calm,-,N/A,,Clear,0,2012-11-18 11:15:00
4:35 AM,32.0,26.2,79,29.97,10.0,Calm,Calm,-,N/A,,Clear,0,2012-11-18 11:35:00
4:55 AM,29.1,24.6,83,29.97,10.0,WSW,3.5,-,N/A,,Clear,250,2012-11-18 11:55:00
5:15 AM,28.4,24.3,84,29.97,10.0,Calm,Calm,-,N/A,,Clear,0,2012-11-18 12:15:00
5:35 AM,27.3,23.4,85,29.98,10.0,Calm,Calm,-,N/A,,Clear,0,2012-11-18 12:35:00
5:55 AM,30.7,26.4,84,29.97,10.0,Calm,Calm,-,N/A,,Clear,0,2012-11-18 12:55:00
6:15 AM,27.7,23.9,86,29.98,10.0,Calm,Calm,-,N/A,,Clear,0,2012-11-18 13:15:00
6:35 AM,29.1,26.4,90,29.98,10.0,Calm,Calm,-,N/A,,Clear,0,2012-11-18 13:35:00
6:55 AM,25.2,21.9,87,29.98,10.0,Calm,Calm,-,N/A,,Clear,0,2012-11-18 13:55:00
7:15 AM,27.9,25.0,89,29.98,10.0,Calm,Calm,-,N/A,,Clear,0,2012-11-18 14:15:00
7:35 AM,30.0,25.9,85,29.97,10.0,Calm,Calm,-,N/A,,Clear,0,2012-11-18 14:35:00
7:55 AM,31.8,27.3,83,29.97,10.0,Calm,Calm,-,N/A,,Clear,0,2012-11-18 14:55:00
8:15 AM,34.0,28.0,79,29.96,10.0,Calm,Calm,-,N/A,,Clear,0,2012-11-18 15:15:00
8:35 AM,37.4,29.3,73,29.96,10.0,Calm,Calm,-,N/A,,Clear,0,2012-11-18 15:35:00
8:55 AM,41.4,30.2,65,29.96,10.0,Calm,Calm,-,N/A,,Clear,0,2012-11-18 15:55:00
9:15 AM,43.9,31.8,63,29.97,10.0,NW,3.5,-,N/A,,Clear,310,2012-11-18 16:15:00
9:35 AM,48.7,32.5,54,29.97,10.0,Calm,Calm,-,N/A,,Clear,0,2012-11-18 16:35:00
9:55 AM,51.4,32.9,49,29.97,10.0,Calm,Calm,-,N/A,,Clear,0,2012-11-18 16:55:00
10:15 AM,53.1,32.0,45,29.96,10.0,Calm,Calm,-,N/A,,Clear,0,2012-11-18 17:15:00
10:35 AM,54.5,32.0,42,29.95,10.0,Calm,Calm,-,N/A,,Clear,0,2012-11-18 17:35:00
10:55 AM,57.2,30.7,37,29.94,10.0,Calm,Calm,-,N/A,,Clear,0,2012-11-18 17:55:00
11:15 AM,59.7,31.3,34,29.93,10.0,Calm,Calm,-,N/A,,Clear,0,2012-11-18 18:15:00
11:35 AM,60.4,32.0,34,29.91,10.0,Calm,Calm,-,N/A,,Clear,0,2012-11-18 18:35:00
11:55 AM,61.2,32.0,33,29.91,10.0,SSW,3.5,-,N/A,,Clear,210,2012-11-18 18:55:00
12:15 PM,63.1,32.5,32,29.90,10.0,SSW,3.5,-,N/A,,Clear,200,2012-11-18 19:15:00
12:35 PM,64.0,32.4,31,29.90,10.0,West,3.5,-,N/A,,Clear,280,2012-11-18 19:35:00
12:55 PM,64.2,32.4,30,29.90,10.0,Calm,Calm,-,N/A,,Clear,0,2012-11-18 19:55:00
1:15 PM,65.1,32.9,30,29.89,10.0,West,3.5,-,N/A,,Clear,280,2012-11-18 20:15:00
1:35 PM,65.5,32.9,30,29.89,10.0,WSW,3.5,-,N/A,,Clear,250,2012-11-18 20:35:00
1:55 PM,66.0,32.7,29,29.89,10.0,SW,3.5,-,N/A,,Clear,230,2012-11-18 20:55:00
2:15 PM,66.0,32.7,29,29.88,10.0,Calm,Calm,-,N/A,,Clear,0,2012-11-18 21:15:00
2:35 PM,66.2,32.4,28,29.89,10.0,SW,3.5,-,N/A,,Clear,230,2012-11-18 21:35:00
2:55 PM,66.2,32.0,28,29.89,10.0,Calm,Calm,-,N/A,,Clear,0,2012-11-18 21:55:00
3:15 PM,66.0,32.0,28,29.89,10.0,Calm,Calm,-,N/A,,Clear,0,2012-11-18 22:15:00
3:35 PM,65.5,31.3,28,29.89,10.0,Calm,Calm,-,N/A,,Clear,0,2012-11-18 22:35:00
3:55 PM,63.9,30.9,29,29.90,10.0,Calm,Calm,-,N/A,,Clear,0,2012-11-18 22:55:00
4:15 PM,61.0,32.2,34,29.90,10.0,South,6.9,-,N/A,,Clear,170,2012-11-18 23:15:00
4:35 PM,54.3,35.6,49,29.91,10.0,SSE,6.9,-,N/A,,Clear,160,2012-11-18 23:35:00
4:55 PM,51.8,35.8,54,29.91,10.0,South,8.1,-,N/A,,Clear,170,2012-11-18 23:55:00
5:15 PM,49.6,35.4,58,29.93,10.0,Calm,Calm,-,N/A,,Clear,0,2012-11-19 00:15:00
5:35 PM,48.4,35.4,61,29.94,10.0,Calm,Calm,-,N/A,,Clear,0,2012-11-19 00:35:00
5:55 PM,47.5,35.6,63,29.94,10.0,SSE,6.9,-,N/A,,Clear,160,2012-11-19 00:55:00
6:15 PM,46.9,36.0,66,29.95,10.0,Calm,Calm,-,N/A,,Clear,0,2012-11-19 01:15:00
6:35 PM,47.7,36.3,65,29.96,10.0,SW,4.6,-,N/A,,Clear,230,2012-11-19 01:35:00
7:15 PM,44.1,35.1,71,29.98,10.0,Calm,Calm,-,N/A,,Clear,0,2012-11-19 02:15:00
7:35 PM,40.8,33.3,74,29.97,10.0,SW,8.1,-,N/A,,Clear,220,2012-11-19 02:35:00
7:55 PM,42.1,33.4,71,29.98,10.0,SSW,4.6,-,N/A,,Clear,210,2012-11-19 02:55:00
8:15 PM,39.7,32.4,75,29.99,10.0,Calm,Calm,-,N/A,,Clear,0,2012-11-19 03:15:00
8:35 PM,38.5,32.0,78,29.99,10.0,Calm,Calm,-,N/A,,Clear,0,2012-11-19 03:35:00
8:55 PM,34.7,29.8,82,30.00,10.0,Calm,Calm,-,N/A,,Clear,0,2012-11-19 03:55:00
9:35 PM,30.7,27.3,87,30.00,10.0,WSW,8.1,-,N/A,,Clear,250,2012-11-19 04:35:00
9:55 PM,32.2,29.3,89,30.00,10.0,West,6.9,-,N/A,,Clear,260,2012-11-19 04:55:00
10:15 PM,32.9,28.8,85,30.00,10.0,West,6.9,-,N/A,,Clear,280,2012-11-19 05:15:00
10:55 PM,32.4,28.0,84,30.01,10.0,West,8.1,-,N/A,,Clear,270,2012-11-19 05:55:00
11:15 PM,35.6,28.6,76,30.01,10.0,WSW,6.9,-,N/A,,Clear,250,2012-11-19 06:15:00
11:35 PM,36.9,28.4,71,30.02,10.0,WSW,4.6,-,N/A,,Clear,250,2012-11-19 06:35:00
11:55 PM,32.5,27.0,80,30.02,10.0,West,4.6,-,N/A,,Clear,270,2012-11-19 06:55:00